createdAt,value
2018-03-02T00:02:25.354Z,24.43
2018-03-02T00:07:29.969Z,27.13
2018-03-02T00:12:33.052Z,30.57
2018-03-02T00:17:37.548Z,30.27
2018-03-02T00:22:41.024Z,29.33
2018-03-02T00:27:44.108Z,27.87
2018-03-02T00:32:48.550Z,29.97
2018-03-02T00:37:52.029Z,30.60
2018-03-02T00:42:56.254Z,30.53
2018-03-02T00:48:00.113Z,26.73
2018-03-02T00:53:04.551Z,24.83
2018-03-02T00:58:09.023Z,28.80
2018-03-02T01:03:13.250Z,28.50
2018-03-02T01:08:17.104Z,29.27
2018-03-02T01:13:20.208Z,30.43
2018-03-02T01:18:24.070Z,30.03
2018-03-02T01:23:28.136Z,31.60
2018-03-02T01:28:32.405Z,31.30
2018-03-02T01:33:35.498Z,30.13
2018-03-02T01:38:39.348Z,32.13
2018-03-02T01:43:43.081Z,33.10
2018-03-02T01:48:48.431Z,34.63
2018-03-02T01:53:52.292Z,29.70
2018-03-02T01:58:55.788Z,32.47
2018-03-02T02:03:59.269Z,35.40
2018-03-02T02:09:02.357Z,37.80
2018-03-02T02:14:05.459Z,33.42
2018-03-02T02:19:09.897Z,29.50
2018-03-02T02:24:12.995Z,30.53
2018-03-02T02:29:17.423Z,33.60
2018-03-02T02:34:21.639Z,31.57
2018-03-02T02:39:24.719Z,30.83
2018-03-02T02:44:29.319Z,33.70
2018-03-02T02:49:32.403Z,34.22
2018-03-02T02:54:36.265Z,34.50
2018-03-02T02:59:39.374Z,34.38
2018-03-02T03:04:42.470Z,32.27
2018-03-02T03:09:45.597Z,30.43
2018-03-02T03:14:49.474Z,36.10
2018-03-02T03:19:53.911Z,35.83
2018-03-02T03:24:58.346Z,32.13
2018-03-02T03:30:02.570Z,33.87
2018-03-02T03:35:07.061Z,38.23
2018-03-02T03:40:11.568Z,34.40
2018-03-02T03:45:15.416Z,35.87
2018-03-02T03:50:18.903Z,36.35
2018-03-02T03:55:23.205Z,37.37
2018-03-02T04:00:27.635Z,32.63
2018-03-02T04:05:31.908Z,34.30
2018-03-02T04:10:35.766Z,35.60
2018-03-02T04:15:40.199Z,35.80
2018-03-02T04:20:44.048Z,36.30
2018-03-02T04:25:48.491Z,35.60
2018-03-02T04:30:51.996Z,33.80
2018-03-02T04:35:55.073Z,35.43
2018-03-02T04:40:59.300Z,31.30
2018-03-02T04:46:02.785Z,38.07
2018-03-02T04:51:05.878Z,35.10
2018-03-02T04:56:09.585Z,38.53
2018-03-02T05:01:12.797Z,37.50
2018-03-02T05:06:16.860Z,31.70
2018-03-02T05:11:21.554Z,36.40
2018-03-02T05:16:26.231Z,33.87
2018-03-02T05:21:29.792Z,37.43
2018-03-02T05:26:33.941Z,31.97
2018-03-02T05:31:37.149Z,41.00
2018-03-02T05:36:41.083Z,33.73
2018-03-02T05:41:45.660Z,35.50
2018-03-02T05:46:49.991Z,35.42
2018-03-02T05:51:53.118Z,36.53
2018-03-02T05:56:57.637Z,35.23
2018-03-02T06:02:01.569Z,32.43
2018-03-02T06:07:11.798Z,36.47
2018-03-02T06:12:15.670Z,39.40
2018-03-02T06:17:18.848Z,37.60
2018-03-02T06:22:23.177Z,39.70
2018-03-02T06:27:27.322Z,41.17
2018-03-02T06:32:31.271Z,36.33
2018-03-02T06:37:34.761Z,38.20
2018-03-02T06:42:38.613Z,37.23
2018-03-02T06:47:41.828Z,39.77
2018-03-02T06:52:46.123Z,40.92
2018-03-02T06:57:51.073Z,40.17
2018-03-02T07:02:54.560Z,36.03
2018-03-02T07:07:58.419Z,40.27
2018-03-02T07:13:02.978Z,43.17
2018-03-02T07:18:06.080Z,35.77
2018-03-02T07:23:10.543Z,40.00
2018-03-02T07:28:14.951Z,41.47
2018-03-02T07:33:19.394Z,37.63
2018-03-02T07:38:22.529Z,35.67
2018-03-02T07:43:26.724Z,38.10
2018-03-02T07:48:30.618Z,39.53
2018-03-02T07:53:33.772Z,40.70
2018-03-02T07:58:36.878Z,36.97
2018-03-02T08:03:40.746Z,36.43
2018-03-02T08:08:44.621Z,38.57
2018-03-02T08:13:49.576Z,39.67
2018-03-02T08:18:53.463Z,40.13
2018-03-02T08:23:56.552Z,40.53
2018-03-02T08:29:00.461Z,36.03
2018-03-02T08:34:03.591Z,41.33
2018-03-02T08:39:06.668Z,41.63
2018-03-02T08:44:09.782Z,41.27
2018-03-02T08:49:13.617Z,44.33
2018-03-02T08:54:16.704Z,42.00
2018-03-02T08:59:19.816Z,40.77
2018-03-02T09:04:23.701Z,44.63
2018-03-02T09:09:27.560Z,39.47
2018-03-02T09:14:30.772Z,39.00
2018-03-02T09:19:33.868Z,37.27
2018-03-02T09:24:38.476Z,40.27
2018-03-02T09:29:43.076Z,35.90
2018-03-02T09:34:46.937Z,35.83
2018-03-02T09:39:51.532Z,35.27
2018-03-02T09:44:56.131Z,38.40
2018-03-02T09:50:00.014Z,39.67
2018-03-02T09:55:03.100Z,41.13
2018-03-02T10:00:06.969Z,39.27
2018-03-02T10:05:10.061Z,36.53
2018-03-02T10:10:13.148Z,36.97
2018-03-02T10:15:16.642Z,38.50
2018-03-02T10:20:20.131Z,35.10
2018-03-02T10:25:23.221Z,35.70
2018-03-02T10:30:27.662Z,36.67
2018-03-02T10:35:31.150Z,39.43
2018-03-02T10:40:34.632Z,38.70
2018-03-02T10:45:39.076Z,34.55
2018-03-02T10:50:43.333Z,35.97
2018-03-02T10:55:47.198Z,40.60
2018-03-02T11:00:52.331Z,38.40
2018-03-02T11:05:55.442Z,35.83
2018-03-02T11:10:59.296Z,39.80
2018-03-02T11:16:02.396Z,38.50
2018-03-02T11:21:05.488Z,34.63
2018-03-02T11:26:09.940Z,38.63
2018-03-02T11:31:13.420Z,37.80
2018-03-02T11:36:18.032Z,40.97
2018-03-02T11:41:21.549Z,35.97
2018-03-02T11:46:25.409Z,37.37
2018-03-02T11:51:30.003Z,37.67
2018-03-02T11:56:33.096Z,37.50
2018-03-02T12:01:37.528Z,37.13
2018-03-02T12:06:40.631Z,37.03
2018-03-02T12:11:43.722Z,38.60
2018-03-02T12:16:46.823Z,39.28
2018-03-02T12:21:49.905Z,31.52
2018-03-02T12:26:54.353Z,40.77
2018-03-02T12:31:57.830Z,37.30
2018-03-02T12:37:00.920Z,36.47
2018-03-02T12:42:04.013Z,39.63
2018-03-02T12:47:07.105Z,37.10
2018-03-02T12:52:11.688Z,38.23
2018-03-02T12:57:14.780Z,40.23
2018-03-02T13:02:19.232Z,42.17
2018-03-02T13:07:23.105Z,44.57
2018-03-02T13:12:26.956Z,41.20
2018-03-02T13:17:30.801Z,41.17
2018-03-02T13:22:40.971Z,37.77
2018-03-02T13:28:02.590Z,43.27
2018-03-02T13:33:23.505Z,37.83
2018-03-02T13:38:26.979Z,42.20
2018-03-02T13:43:30.829Z,39.20
2018-03-02T13:48:51.912Z,39.77
2018-03-02T13:53:55.003Z,42.80
2018-03-02T13:58:58.849Z,43.30
2018-03-02T14:09:51.016Z,37.73
2018-03-02T14:14:54.492Z,42.60
2018-03-02T14:19:57.585Z,38.63
2018-03-02T14:25:01.092Z,31.67
2018-03-02T14:30:05.189Z,44.17
2018-03-02T14:35:09.046Z,44.23
2018-03-02T14:40:12.198Z,35.33
2018-03-02T14:45:15.282Z,40.70
2018-03-02T14:50:18.913Z,44.53
2018-03-02T14:55:22.310Z,45.47
2018-03-02T15:00:25.800Z,43.03
2018-03-02T15:05:30.237Z,41.78
2018-03-02T15:10:33.342Z,40.97
2018-03-02T15:15:36.493Z,41.77
2018-03-02T15:20:41.166Z,45.20
2018-03-02T15:25:44.807Z,46.13
2018-03-02T15:30:48.693Z,42.67
2018-03-02T15:35:51.838Z,45.10
2018-03-02T15:40:55.281Z,43.37
2018-03-02T15:45:59.872Z,42.33
2018-03-02T15:51:04.469Z,41.20
2018-03-02T15:56:07.564Z,46.17
2018-03-02T16:01:11.425Z,41.40
2018-03-02T16:06:15.549Z,44.87
2018-03-02T16:11:19.383Z,43.37
2018-03-02T16:16:24.129Z,43.10
2018-03-02T16:21:27.425Z,42.83
2018-03-02T16:26:31.644Z,44.07
2018-03-02T16:31:34.724Z,45.20
2018-03-02T16:36:37.810Z,42.37
2018-03-02T16:41:42.417Z,42.80
2018-03-02T16:46:45.519Z,44.20
2018-03-02T16:51:50.655Z,42.23
2018-03-02T16:56:54.860Z,45.23
2018-03-02T17:01:57.984Z,44.47
2018-03-02T17:07:02.478Z,47.43
2018-03-02T17:12:06.907Z,46.17
2018-03-02T17:17:10.793Z,44.67
2018-03-02T17:22:13.868Z,46.43
2018-03-02T17:27:17.725Z,45.23
2018-03-02T17:32:20.801Z,45.83
2018-03-02T17:37:25.217Z,49.83
2018-03-02T17:42:29.065Z,46.23
2018-03-02T17:47:32.904Z,49.50
2018-03-02T17:52:37.149Z,49.50
2018-03-02T17:57:43.080Z,48.60
2018-03-02T18:02:47.336Z,49.78
2018-03-02T18:07:50.445Z,49.60
2018-03-02T18:12:54.872Z,49.73
2018-03-02T18:17:57.957Z,52.87
2018-03-02T18:23:02.397Z,52.50
2018-03-02T18:28:06.241Z,50.90
2018-03-02T18:33:10.845Z,53.83
2018-03-02T18:38:15.291Z,50.47
2018-03-02T18:43:19.731Z,57.97
2018-03-02T18:48:23.952Z,55.50
2018-03-02T18:53:27.040Z,54.90
2018-03-02T18:58:31.649Z,56.23
2018-03-02T19:03:35.137Z,58.33
2018-03-02T19:08:39.269Z,55.23
2018-03-02T19:13:42.766Z,56.30
2018-03-02T19:18:45.921Z,64.90
2018-03-02T19:23:49.017Z,58.70
2018-03-02T19:28:52.124Z,61.23
2018-03-02T19:33:55.207Z,62.53
2018-03-02T19:38:58.712Z,72.00
2018-03-02T19:44:02.561Z,64.32
2018-03-02T19:49:05.696Z,78.03
2018-03-02T19:54:08.786Z,69.67
2018-03-02T19:59:12.280Z,69.97
2018-03-02T20:04:16.735Z,77.67
2018-03-02T20:09:20.230Z,69.37
2018-03-02T20:14:23.740Z,75.40
2018-03-02T20:19:27.347Z,79.33
2018-03-02T20:24:31.816Z,77.83
2018-03-02T20:29:36.275Z,80.43
2018-03-02T20:34:40.128Z,91.23
2018-03-02T20:39:44.013Z,87.10
2018-03-02T20:44:48.452Z,88.40
2018-03-02T20:49:52.929Z,93.57
2018-03-02T20:54:57.149Z,95.77
2018-03-02T21:00:00.236Z,91.03
2018-03-02T21:05:04.680Z,79.27
2018-03-02T21:10:08.172Z,89.93
2018-03-02T21:15:12.035Z,96.57
2018-03-02T21:20:15.116Z,96.10
2018-03-02T21:25:18.619Z,94.07
2018-03-02T21:30:22.452Z,92.33
2018-03-02T21:35:26.389Z,87.27
2018-03-02T21:40:29.913Z,90.13
2018-03-02T21:45:45.448Z,98.40
2018-03-02T21:50:48.607Z,103.07
2018-03-02T21:55:52.554Z,102.40
2018-03-02T22:00:55.713Z,93.23
2018-03-02T22:05:59.261Z,98.55
2018-03-02T22:11:03.181Z,93.27
2018-03-02T22:16:06.667Z,91.70
2018-03-02T22:21:09.785Z,94.28
2018-03-02T22:26:12.957Z,90.90
2018-03-02T22:31:16.877Z,96.67
2018-03-02T22:36:20.033Z,95.18
2018-03-02T22:41:23.209Z,95.50
2018-03-02T22:46:26.408Z,91.37
2018-03-02T22:51:30.357Z,101.33
2018-03-02T22:56:35.039Z,101.87
2018-03-02T23:01:38.937Z,99.53
2018-03-02T23:06:42.045Z,100.57
2018-03-02T23:11:45.142Z,102.50
2018-03-02T23:16:49.822Z,103.73
2018-03-02T23:21:53.748Z,105.07
2018-03-02T23:26:57.635Z,104.60
2018-03-02T23:32:00.802Z,110.63
2018-03-02T23:37:04.030Z,113.40
2018-03-02T23:42:07.186Z,109.90
2018-03-02T23:47:11.136Z,103.60
2018-03-02T23:52:14.342Z,103.10
2018-03-02T23:57:17.550Z,113.40
